Tubul — A8VP8 — position and weather

sailwx.info

Track history (hours):
 
Tides and Currents Weather Stations Pressure Air Temp Water Temp Dewpoint Dewpoint Depression Visibility Wind Speed Wind Dir Waves Ship Positions

Tubul

Last reported at 2016-Feb-05 17:32 UTC. Time now 2016-Feb-13 06:51 UTC.
Position S 24°12' W 041°49'.

Length 300 m; draft 13.3 m.

Type: Ship (hazmat cat A). MMSI: 636014647.

Date/timePositionNaut miles runAvg speedWind from/ knotsBaromVisibWave heightAir tempDewpointWater temp
2016-Feb-05 17:32S 24°12' W 041°49'1615.9
2016-Feb-05 16:30S 24°05' W 042°05'3115.9
2016-Feb-05 14:32S 23°51' W 042°36'184 4.4
2016-Feb-03 20:30S 24°15' W 045°55'910.0
2016-Feb-03 19:34S 24°13' W 046°06'1010.0
2016-Feb-03 18:33S 24°11' W 046°16'9 8.6
2016-Feb-03 17:33S 24°05' W 046°23'8 7.5
2016-Feb-03 16:29S 23°58' W 046°18'0 0.0
2016-Feb-03 12:29S 23°58' W 046°18'0 0.0
2016-Feb-03 11:17S 23°58' W 046°18'0 0.0
2016-Feb-03 09:29S 23°58' W 046°18'0 0.0
2016-Feb-03 08:26S 23°58' W 046°18'0 0.0
2016-Feb-03 05:23S 23°58' W 046°18'0 0.0
2016-Feb-03 03:29S 23°58' W 046°18'0 0.0
2016-Feb-03 02:29S 23°58' W 046°18'0 0.0
2016-Feb-02 22:26S 23°58' W 046°18'0 0.0
2016-Feb-02 17:29S 23°58' W 046°18'0 0.0
2016-Feb-02 16:29S 23°58' W 046°18'0 0.0
2016-Feb-02 15:29S 23°58' W 046°18'0 0.0
2016-Feb-02 14:06S 23°58' W 046°18'1 1.0
2016-Feb-02 13:33S 23°59' W 046°17'10 9.7
2016-Feb-02 12:33S 24°07' W 046°24'3 2.9
2016-Feb-02 11:33S 24°09' W 046°25'1010.2
2016-Feb-02 10:33S 24°18' W 046°30'1413.7
2016-Feb-02 09:33S 24°30' W 046°37'1616.4
2016-Feb-02 08:33S 24°42' W 046°50'122 2.8
2016-Jan-31 13:18S 26°14' W 048°19'  
2016-Jan-28 17:33S 24°42' W 046°50'10 9.6
2016-Jan-28 16:33S 24°35' W 046°42'10 9.7
2016-Jan-28 15:33S 24°28' W 046°36'1010.0
2016-Jan-28 14:33S 24°19' W 046°30'10 9.5
2016-Jan-28 13:33S 24°11' W 046°25'1010.4
2016-Jan-28 12:33S 24°01' W 046°21'4 3.8
2016-Jan-28 11:33S 23°58' W 046°18'0 0.0
2016-Jan-28 09:27S 23°58' W 046°18'0 0.0
2016-Jan-28 08:33S 23°58' W 046°18'0 0.0
2016-Jan-28 07:33S 23°58' W 046°18'0 0.0
2016-Jan-28 06:33S 23°58' W 046°18'0 0.0
2016-Jan-28 05:27S 23°58' W 046°18'0 0.0
2016-Jan-28 04:09S 23°58' W 046°18'0 0.0
2016-Jan-28 03:33S 23°58' W 046°18'0 0.0
2016-Jan-28 02:33S 23°58' W 046°18'0 0.0
2016-Jan-28 01:33S 23°58' W 046°18'0 0.0
2016-Jan-28 00:24S 23°58' W 046°18'0 0.0
2016-Jan-27 06:33S 23°59' W 046°17'9 8.6
2016-Jan-27 05:33S 24°06' W 046°23'6 6.4
2016-Jan-27 04:33S 24°12' W 046°23'0 0.3
2016-Jan-27 03:33S 24°12' W 046°23'0 0.2
2016-Jan-27 02:33S 24°12' W 046°23'6 6.2
2016-Jan-27 01:33S 24°16' W 046°17'1110.9
2016-Jan-27 00:33S 24°16' W 046°05'1111.0
2016-Jan-26 23:33S 24°15' W 045°53'4711.0
2016-Jan-26 19:18S 23°56' W 045°07'  
Track history (hours):
 
Tides and Currents Weather Stations Pressure Air Temp Water Temp Dewpoint Dewpoint Depression Visibility Wind Speed Wind Dir Waves Ship Positions

Tubul

Last reported at 2016-Feb-05 17:32 UTC. Time now 2016-Feb-13 06:51 UTC.
Position S 24°12' W 041°49'.

Length 300 m; draft 13.3 m.

Type: Ship (hazmat cat A). MMSI: 636014647.

Date/timePositionNaut miles runAvg speedWind from/ knotsBaromVisibWave heightAir tempDewpointWater temp
2016-Feb-05 17:32S 24°12' W 041°49'1615.9
2016-Feb-05 16:30S 24°05' W 042°05'3115.9
2016-Feb-05 14:32S 23°51' W 042°36'184 4.4
2016-Feb-03 20:30S 24°15' W 045°55'910.0
2016-Feb-03 19:34S 24°13' W 046°06'1010.0
2016-Feb-03 18:33S 24°11' W 046°16'9 8.6
2016-Feb-03 17:33S 24°05' W 046°23'8 7.5
2016-Feb-03 16:29S 23°58' W 046°18'0 0.0
2016-Feb-03 12:29S 23°58' W 046°18'0 0.0
2016-Feb-03 11:17S 23°58' W 046°18'0 0.0
2016-Feb-03 09:29S 23°58' W 046°18'0 0.0
2016-Feb-03 08:26S 23°58' W 046°18'0 0.0
2016-Feb-03 05:23S 23°58' W 046°18'0 0.0
2016-Feb-03 03:29S 23°58' W 046°18'0 0.0
2016-Feb-03 02:29S 23°58' W 046°18'0 0.0
2016-Feb-02 22:26S 23°58' W 046°18'0 0.0
2016-Feb-02 17:29S 23°58' W 046°18'0 0.0
2016-Feb-02 16:29S 23°58' W 046°18'0 0.0
2016-Feb-02 15:29S 23°58' W 046°18'0 0.0
2016-Feb-02 14:06S 23°58' W 046°18'1 1.0
2016-Feb-02 13:33S 23°59' W 046°17'10 9.7
2016-Feb-02 12:33S 24°07' W 046°24'3 2.9
2016-Feb-02 11:33S 24°09' W 046°25'1010.2
2016-Feb-02 10:33S 24°18' W 046°30'1413.7
2016-Feb-02 09:33S 24°30' W 046°37'1616.4
2016-Feb-02 08:33S 24°42' W 046°50'122 2.8
2016-Jan-31 13:18S 26°14' W 048°19'  
2016-Jan-28 17:33S 24°42' W 046°50'10 9.6
2016-Jan-28 16:33S 24°35' W 046°42'10 9.7
2016-Jan-28 15:33S 24°28' W 046°36'1010.0
2016-Jan-28 14:33S 24°19' W 046°30'10 9.5
2016-Jan-28 13:33S 24°11' W 046°25'1010.4
2016-Jan-28 12:33S 24°01' W 046°21'4 3.8
2016-Jan-28 11:33S 23°58' W 046°18'0 0.0
2016-Jan-28 09:27S 23°58' W 046°18'0 0.0
2016-Jan-28 08:33S 23°58' W 046°18'0 0.0
2016-Jan-28 07:33S 23°58' W 046°18'0 0.0
2016-Jan-28 06:33S 23°58' W 046°18'0 0.0
2016-Jan-28 05:27S 23°58' W 046°18'0 0.0
2016-Jan-28 04:09S 23°58' W 046°18'0 0.0
2016-Jan-28 03:33S 23°58' W 046°18'0 0.0
2016-Jan-28 02:33S 23°58' W 046°18'0 0.0
2016-Jan-28 01:33S 23°58' W 046°18'0 0.0
2016-Jan-28 00:24S 23°58' W 046°18'0 0.0
2016-Jan-27 06:33S 23°59' W 046°17'9 8.6
2016-Jan-27 05:33S 24°06' W 046°23'6 6.4
2016-Jan-27 04:33S 24°12' W 046°23'0 0.3
2016-Jan-27 03:33S 24°12' W 046°23'0 0.2
2016-Jan-27 02:33S 24°12' W 046°23'6 6.2
2016-Jan-27 01:33S 24°16' W 046°17'1110.9
2016-Jan-27 00:33S 24°16' W 046°05'1111.0
2016-Jan-26 23:33S 24°15' W 045°53'4711.0
2016-Jan-26 19:18S 23°56' W 045°07'  

Dump ship's entire track history